Time;durP1;ratioP1;P1;durP2;ratioP2;P2;SDS_P1;SDS_P2;PMS_P1;PMS_P2;Temp;Humidity;BMP_temperature;BMP_pressure;BME280_temperature;BME280_humidity;BME280_pressure;Samples;Min_cycle;Max_cycle;Signal;HPM_P1;HPM_P2
2021/11/17 02:26:28;;;;;;;40.07;22.43;;;7.50;99.90;;;;;;5056488;28;20192;-82
2021/11/17 02:29:13;;;;;;;45.20;22.33;;;7.50;99.90;;;;;;5055186;28;20629;-81
2021/11/17 02:32:16;;;;;;;39.30;23.63;;;7.50;99.90;;;;;;5039190;28;20207;-81
2021/11/17 02:35:06;;;;;;;41.77;23.17;;;7.50;99.90;;;;;;5040538;28;20679;-81
2021/11/17 02:37:53;;;;;;;42.90;22.03;;;7.50;99.90;;;;;;5025492;28;20242;-81
2021/11/17 02:40:50;;;;;;;42.27;23.20;;;7.50;99.90;;;;;;5056572;28;20165;-82
2021/11/17 02:43:35;;;;;;;43.40;22.90;;;7.40;99.90;;;;;;5025129;28;20169;-82
2021/11/17 02:46:22;;;;;;;42.93;23.83;;;7.50;99.90;;;;;;5056421;28;20197;-81
2021/11/17 02:49:01;;;;;;;45.33;22.63;;;7.50;99.90;;;;;;5037500;28;20207;-81
2021/11/17 02:51:39;;;;;;;39.43;22.00;;;7.60;99.90;;;;;;5038676;28;20641;-81
2021/11/17 02:54:04;;;;;;;45.43;23.20;;;7.60;99.90;;;;;;5039511;28;20173;-82
2021/11/17 02:56:48;;;;;;;46.30;24.10;;;7.70;99.90;;;;;;5057943;28;20284;-82
2021/11/17 02:59:35;;;;;;;46.07;23.57;;;7.70;99.90;;;;;;5055864;28;20161;-82
2021/11/17 03:02:09;;;;;;;52.00;24.77;;;7.70;99.90;;;;;;5055387;28;20195;-81
2021/11/17 03:05:13;;;;;;;52.17;26.00;;;7.70;99.90;;;;;;5056373;28;20239;-83
2021/11/17 03:07:48;;;;;;;50.37;24.80;;;7.60;99.90;;;;;;5057039;28;20307;-80
2021/11/17 03:10:14;;;;;;;49.87;25.13;;;7.50;99.90;;;;;;5044117;28;20199;-83
2021/11/17 03:13:01;;;;;;;52.47;25.10;;;7.50;99.90;;;;;;5054358;28;20177;-81
2021/11/17 03:15:46;;;;;;;48.57;24.73;;;7.50;99.90;;;;;;5053742;28;20219;-82
2021/11/17 03:18:18;;;;;;;45.03;23.80;;;7.50;99.90;;;;;;5053842;28;20183;-82
2021/11/17 03:21:08;;;;;;;48.17;23.13;;;7.40;99.90;;;;;;5037561;28;20234;-82
2021/11/17 03:23:55;;;;;;;54.40;25.70;;;7.40;99.90;;;;;;5053793;28;20482;-82
2021/11/17 03:26:43;;;;;;;52.93;25.43;;;7.30;99.90;;;;;;5038682;28;20224;-81
2021/11/17 03:29:14;;;;;;;47.27;25.30;;;7.40;99.90;;;;;;5040571;28;20169;-82
2021/11/17 03:31:46;;;;;;;54.10;26.13;;;7.50;99.90;;;;;;5057598;28;20208;-81
2021/11/17 03:34:25;;;;;;;45.20;23.90;;;7.40;99.90;;;;;;5059459;28;20176;-81
2021/11/17 03:37:15;;;;;;;51.63;25.37;;;7.40;99.90;;;;;;5041561;28;20173;-81
2021/11/17 03:40:01;;;;;;;53.20;24.43;;;7.40;99.90;;;;;;5057477;28;20641;-83
2021/11/17 03:42:48;;;;;;;49.77;24.53;;;7.40;99.90;;;;;;5040282;28;20184;-82
2021/11/17 03:45:30;;;;;;;50.30;25.20;;;7.40;99.90;;;;;;5056881;28;20168;-81
2021/11/17 03:48:12;;;;;;;46.43;23.80;;;7.50;99.90;;;;;;5039262;28;20203;-81
2021/11/17 03:50:50;;;;;;;51.43;25.53;;;7.50;99.90;;;;;;5055878;28;20655;-82
2021/11/17 03:53:28;;;;;;;53.30;26.43;;;7.50;99.90;;;;;;5039830;28;20172;-81
2021/11/17 03:56:16;;;;;;;50.60;24.77;;;7.40;99.90;;;;;;5055184;28;20168;-81
2021/11/17 03:59:08;;;;;;;49.20;24.33;;;7.50;99.90;;;;;;5042626;28;20176;-82
2021/11/17 04:01:43;;;;;;;53.73;25.63;;;7.50;99.90;;;;;;5056140;28;20180;-81
2021/11/17 04:04:28;;;;;;;56.50;27.60;;;7.60;99.90;;;;;;5055996;28;20172;-83
2021/11/17 04:07:13;;;;;;;49.57;24.53;;;7.60;99.90;;;;;;5053410;28;20192;-81
2021/11/17 04:10:16;;;;;;;55.67;26.40;;;7.60;99.90;;;;;;5053359;28;20177;-82
2021/11/17 04:12:57;;;;;;;54.10;25.37;;;7.60;99.90;;;;;;5056917;28;20180;-83
2021/11/17 04:15:32;;;;;;;56.40;27.23;;;7.50;99.90;;;;;;5039858;28;20544;-83
2021/11/17 04:18:17;;;;;;;55.13;27.40;;;7.50;99.90;;;;;;5040971;28;20173;-82
2021/11/17 04:20:55;;;;;;;59.87;27.40;;;7.60;99.90;;;;;;5058850;28;20187;-81
2021/11/17 04:23:51;;;;;;;53.60;26.40;;;7.50;99.90;;;;;;5058058;28;20200;-81
2021/11/17 04:26:27;;;;;;;55.27;26.80;;;7.60;99.90;;;;;;5057879;28;20196;-81
2021/11/17 04:29:11;;;;;;;59.20;27.80;;;7.60;99.90;;;;;;5044941;28;20169;-81
2021/11/17 04:31:55;;;;;;;59.83;27.47;;;7.50;99.90;;;;;;5061124;28;20188;-82
2021/11/17 04:34:40;;;;;;;61.33;28.53;;;7.50;99.90;;;;;;5059673;28;20625;-83
2021/11/17 04:37:21;;;;;;;56.97;26.77;;;7.50;99.90;;;;;;5039459;28;20169;-83
2021/11/17 04:40:03;;;;;;;59.10;27.30;;;7.50;99.90;;;;;;5022763;28;20212;-83
2021/11/17 04:42:56;;;;;;;60.50;28.93;;;7.50;99.90;;;;;;5039131;28;20176;-83
2021/11/17 04:45:50;;;;;;;67.40;28.97;;;7.50;99.90;;;;;;5058402;28;20180;-82
2021/11/17 04:48:46;;;;;;;64.97;29.63;;;7.40;99.90;;;;;;5044262;28;20254;-82
2021/11/17 04:51:46;;;;;;;62.07;27.93;;;7.40;99.90;;;;;;5057112;28;20501;-82
2021/11/17 04:54:34;;;;;;;66.07;29.10;;;7.40;99.90;;;;;;5027274;28;20173;-83
2021/11/17 04:57:03;;;;;;;69.17;31.23;;;7.60;99.90;;;;;;5031537;28;20195;-81
2021/11/17 04:59:55;;;;;;;60.50;30.70;;;7.60;99.90;;;;;;5068622;28;20185;-82
2021/11/17 05:02:46;;;;;;;65.87;29.57;;;7.60;99.90;;;;;;5040479;28;20197;-81
2021/11/17 05:05:36;;;;;;;64.23;30.17;;;7.50;99.90;;;;;;5042901;28;20250;-82
2021/11/17 05:08:14;;;;;;;70.80;31.03;;;7.60;99.90;;;;;;5058008;28;20253;-82
2021/11/17 05:11:25;;;;;;;65.80;30.93;;;7.60;99.90;;;;;;5043734;28;20544;-80
2021/11/17 05:14:21;;;;;;;66.90;30.83;;;7.50;99.90;;;;;;5039830;28;20231;-82
2021/11/17 05:17:11;;;;;;;70.03;30.20;;;7.50;99.90;;;;;;5029708;28;20165;-82
2021/11/17 05:19:54;;;;;;;68.10;31.10;;;7.50;99.90;;;;;;5029092;28;20169;-82
2021/11/17 05:22:20;;;;;;;61.87;29.50;;;7.50;99.90;;;;;;5043803;28;20165;-82
2021/11/17 05:24:51;;;;;;;70.03;31.37;;;7.50;99.90;;;;;;5059395;28;20177;-82
2021/11/17 05:27:51;;;;;;;63.33;29.57;;;7.50;99.90;;;;;;5059112;28;20768;-81
2021/11/17 05:30:25;;;;;;;65.40;29.50;;;7.50;99.90;;;;;;5040855;28;20192;-83
2021/11/17 05:33:14;;;;;;;68.17;30.03;;;7.60;99.90;;;;;;5058877;28;20268;-81
2021/11/17 05:35:48;;;;;;;59.90;28.97;;;7.60;99.90;;;;;;5042266;28;20169;-82
2021/11/17 05:38:35;;;;;;;64.60;30.73;;;7.70;99.90;;;;;;5058045;28;20179;-81
2021/11/17 05:41:07;;;;;;;64.03;30.67;;;7.70;99.90;;;;;;5058407;28;20169;-81
2021/11/17 05:44:02;;;;;;;60.83;28.53;;;7.80;99.90;;;;;;5059058;28;20261;-81
2021/11/17 05:46:43;;;;;;;59.47;28.60;;;7.80;99.90;;;;;;5059163;28;20278;-82
2021/11/17 05:49:39;;;;;;;60.90;29.03;;;7.80;99.90;;;;;;5026577;28;20165;-85
2021/11/17 05:52:32;;;;;;;57.67;26.47;;;7.80;99.90;;;;;;5058524;28;20169;-82
2021/11/17 05:55:18;;;;;;;62.30;28.00;;;7.80;99.90;;;;;;5026166;28;20208;-82
2021/11/17 05:57:46;;;;;;;53.10;26.10;;;7.90;99.90;;;;;;5044406;28;20165;-82
2021/11/17 06:00:44;;;;;;;58.40;28.90;;;7.90;99.90;;;;;;5060339;28;20235;-82
2021/11/17 06:03:41;;;;;;;58.90;27.27;;;7.90;99.90;;;;;;5060380;28;20653;-81
2021/11/17 06:06:08;;;;;;;53.83;26.27;;;8.00;99.90;;;;;;5028910;28;20635;-81
2021/11/17 06:08:33;;;;;;;55.33;26.93;;;8.00;99.90;;;;;;5058691;28;20180;-81
2021/11/17 06:11:03;;;;;;;52.20;26.13;;;8.10;99.90;;;;;;5056659;28;20181;-81
2021/11/17 06:13:29;;;;;;;58.67;27.33;;;8.00;99.90;;;;;;5055356;28;20181;-82
2021/11/17 06:15:57;;;;;;;54.00;26.47;;;8.10;99.90;;;;;;5056663;28;20173;-82
2021/11/17 06:18:26;;;;;;;52.60;26.83;;;8.10;99.90;;;;;;5055819;28;20177;-82
2021/11/17 06:20:53;;;;;;;51.00;25.27;;;8.20;99.90;;;;;;5056326;28;20184;-83
2021/11/17 06:23:48;;;;;;;54.37;25.60;;;8.20;99.90;;;;;;5055704;28;20203;-81
2021/11/17 06:26:21;;;;;;;53.03;26.17;;;8.10;99.90;;;;;;5053356;28;20227;-83
2021/11/17 06:29:00;;;;;;;49.70;24.60;;;8.10;99.90;;;;;;5055559;28;20176;-82
2021/11/17 06:31:28;;;;;;;47.77;25.77;;;8.10;99.90;;;;;;5058198;28;20177;-82
2021/11/17 06:33:54;;;;;;;50.20;24.97;;;8.20;99.90;;;;;;5055696;28;20176;-82
2021/11/17 06:36:20;;;;;;;53.93;26.27;;;8.30;99.90;;;;;;5058885;28;20161;-83
2021/11/17 06:38:47;;;;;;;50.17;25.83;;;8.30;99.90;;;;;;5056705;28;20663;-81
2021/11/17 06:41:15;;;;;;;49.73;25.90;;;8.30;99.90;;;;;;5057805;28;20192;-83
2021/11/17 06:43:41;;;;;;;47.30;24.60;;;8.30;99.90;;;;;;5058154;28;20522;-82
2021/11/17 06:46:08;;;;;;;46.00;25.87;;;8.30;99.90;;;;;;5058744;28;20287;-83
2021/11/17 06:48:34;;;;;;;48.63;25.47;;;8.30;99.90;;;;;;5058635;28;20260;-81
2021/11/17 06:51:02;;;;;;;48.33;26.37;;;8.30;99.90;;;;;;5057768;28;20192;-81
2021/11/17 06:53:29;;;;;;;50.63;25.43;;;8.10;99.90;;;;;;5056820;28;20180;-82
2021/11/17 06:55:56;;;;;;;42.67;23.77;;;8.20;99.90;;;;;;5058513;28;20200;-81
2021/11/17 06:58:23;;;;;;;49.87;26.57;;;8.20;99.90;;;;;;5060041;28;20237;-81
2021/11/17 07:00:51;;;;;;;49.03;24.70;;;8.20;99.90;;;;;;5064204;28;20234;-81
2021/11/17 07:03:17;;;;;;;50.87;27.20;;;8.20;99.90;;;;;;5077986;28;20207;-83
2021/11/17 07:05:43;;;;;;;47.93;25.47;;;8.20;99.90;;;;;;5061801;28;20177;-80
2021/11/17 07:08:09;;;;;;;51.33;26.03;;;8.30;99.90;;;;;;5061016;28;20173;-83
2021/11/17 07:10:36;;;;;;;49.53;25.13;;;8.40;99.90;;;;;;5057758;28;20173;-82
2021/11/17 07:13:04;;;;;;;49.73;25.77;;;8.30;99.90;;;;;;5060454;28;20706;-82
2021/11/17 07:15:32;;;;;;;49.73;25.37;;;8.30;99.90;;;;;;5074532;28;20248;-82
2021/11/17 07:17:58;;;;;;;55.77;26.30;;;8.30;99.90;;;;;;5057089;28;20232;-82
2021/11/17 07:20:24;;;;;;;52.03;26.33;;;8.40;99.90;;;;;;5056101;28;20204;-82
2021/11/17 07:22:49;;;;;;;58.57;26.20;;;8.50;99.90;;;;;;5057961;28;20200;-83
2021/11/17 07:25:19;;;;;;;54.97;26.60;;;8.40;99.90;;;;;;5075114;28;20199;-81
2021/11/17 07:27:45;;;;;;;51.50;26.37;;;8.40;99.90;;;;;;5076156;28;20208;-81
2021/11/17 07:30:14;;;;;;;55.67;27.57;;;8.50;99.90;;;;;;5073365;28;20702;-83
2021/11/17 07:32:41;;;;;;;51.30;26.60;;;8.50;99.90;;;;;;5056775;28;20594;-82
2021/11/17 07:35:08;;;;;;;60.10;28.10;;;8.40;99.90;;;;;;5075744;28;20176;-84
2021/11/17 07:37:35;;;;;;;58.97;27.93;;;8.40;99.90;;;;;;5076340;28;20173;-81
2021/11/17 07:40:02;;;;;;;61.80;29.47;;;8.50;99.90;;;;;;5075140;28;20173;-84
2021/11/17 07:42:28;;;;;;;63.60;28.07;;;8.50;99.90;;;;;;5076812;28;20172;-82
2021/11/17 07:44:54;;;;;;;55.40;27.73;;;8.50;99.90;;;;;;5074715;28;20188;-83
2021/11/17 07:47:19;;;;;;;60.77;27.60;;;8.40;99.90;;;;;;5066163;28;20213;-81
2021/11/17 07:49:45;;;;;;;59.63;27.60;;;8.40;99.90;;;;;;5043672;28;20636;-83
2021/11/17 07:52:13;;;;;;;64.07;29.03;;;8.40;99.90;;;;;;5054983;28;20199;-83
2021/11/17 07:54:39;;;;;;;56.50;27.43;;;8.40;99.90;;;;;;5061069;28;20177;-81
2021/11/17 07:57:08;;;;;;;55.77;26.97;;;8.40;99.90;;;;;;5070247;28;20173;-84
2021/11/17 07:59:36;;;;;;;57.87;27.17;;;8.40;99.90;;;;;;5086840;28;20200;-82
2021/11/17 08:02:09;;;;;;;57.87;28.17;;;8.40;99.90;;;;;;5058985;28;20241;-84
2021/11/17 08:04:38;;;;;;;63.30;29.23;;;8.30;99.90;;;;;;5070535;28;20181;-83
2021/11/17 08:07:16;;;;;;;62.07;27.97;;;8.40;99.90;;;;;;5053253;28;20604;-84
2021/11/17 08:09:47;;;;;;;63.40;27.37;;;8.50;99.90;;;;;;5037717;28;20173;-82
2021/11/17 08:12:13;;;;;;;58.50;28.40;;;8.50;99.90;;;;;;5054828;28;20169;-83
2021/11/17 08:14:38;;;;;;;57.13;27.57;;;8.60;99.90;;;;;;5051751;28;20177;-85
2021/11/17 08:17:05;;;;;;;57.10;26.73;;;8.50;99.90;;;;;;5050476;28;20233;-82
2021/11/17 08:19:31;;;;;;;62.57;28.53;;;8.60;99.90;;;;;;5049590;28;20177;-83
2021/11/17 08:21:57;;;;;;;62.63;29.00;;;8.70;99.90;;;;;;5048292;28;20195;-82
2021/11/17 08:24:23;;;;;;;63.63;27.37;;;8.80;99.90;;;;;;5065479;28;20197;-81
2021/11/17 08:26:49;;;;;;;57.93;26.87;;;8.70;99.90;;;;;;5064028;28;20216;-83
2021/11/17 08:29:15;;;;;;;54.73;25.47;;;8.80;99.90;;;;;;5057896;28;20221;-82
2021/11/17 08:31:41;;;;;;;62.63;28.43;;;8.80;99.90;;;;;;5057487;28;20272;-83
2021/11/17 08:34:08;;;;;;;58.83;27.53;;;8.80;99.90;;;;;;5062008;28;20194;-82
2021/11/17 08:36:35;;;;;;;61.27;27.03;;;8.80;99.90;;;;;;5057977;28;20173;-82
2021/11/17 08:39:03;;;;;;;57.30;27.70;;;8.90;99.90;;;;;;5056950;28;20177;-83
2021/11/17 08:41:30;;;;;;;56.37;25.37;;;8.90;99.90;;;;;;5055686;28;20234;-83
2021/11/17 08:43:59;;;;;;;54.63;26.00;;;8.80;99.90;;;;;;5053158;28;20722;-83
2021/11/17 08:46:26;;;;;;;64.27;26.10;;;8.80;99.90;;;;;;5052429;28;20299;-82
2021/11/17 08:48:53;;;;;;;55.53;26.87;;;8.80;99.90;;;;;;5066613;28;20636;-82
2021/11/17 08:51:20;;;;;;;60.47;26.57;;;8.80;99.90;;;;;;5056276;28;20712;-82
2021/11/17 08:53:48;;;;;;;55.60;25.63;;;8.80;99.90;;;;;;5076904;28;20164;-84
2021/11/17 08:56:14;;;;;;;59.03;25.33;;;8.80;99.90;;;;;;5075418;28;20559;-83
2021/11/17 08:58:42;;;;;;;53.90;25.17;;;8.80;99.90;;;;;;5074915;28;20263;-83
2021/11/17 09:01:08;;;;;;;64.97;27.77;;;8.90;99.90;;;;;;5068933;28;20184;-83
2021/11/17 09:03:35;;;;;;;61.23;25.90;;;9.00;99.90;;;;;;5075984;28;20199;-83
2021/11/17 09:06:04;;;;;;;56.70;25.27;;;9.00;99.90;;;;;;5074460;28;20172;-82
2021/11/17 09:08:31;;;;;;;55.33;25.97;;;9.00;99.90;;;;;;5063267;28;20234;-84
2021/11/17 09:11:00;;;;;;;50.70;25.30;;;9.00;99.90;;;;;;5055040;28;20216;-85
2021/11/17 09:13:26;;;;;;;50.13;25.43;;;9.10;99.90;;;;;;5052685;28;20177;-84
2021/11/17 09:15:54;;;;;;;51.00;25.03;;;9.00;99.90;;;;;;5041553;28;20195;-84
2021/11/17 09:18:23;;;;;;;49.97;25.40;;;9.10;99.90;;;;;;5056018;28;20165;-84
2021/11/17 09:20:49;;;;;;;54.83;24.33;;;9.20;99.90;;;;;;5056637;28;20196;-82
2021/11/17 09:23:17;;;;;;;51.77;23.97;;;9.10;99.90;;;;;;5073593;28;20210;-83
2021/11/17 09:25:43;;;;;;;52.30;23.77;;;9.30;99.90;;;;;;5057094;28;20222;-82
2021/11/17 09:28:10;;;;;;;45.77;23.47;;;9.20;99.90;;;;;;5052666;28;20196;-83
2021/11/17 09:30:39;;;;;;;49.53;24.13;;;9.30;99.90;;;;;;5068410;28;20165;-83
2021/11/17 09:33:08;;;;;;;48.20;24.17;;;9.30;99.90;;;;;;5075018;28;20642;-82
2021/11/17 09:35:35;;;;;;;52.73;24.10;;;9.40;99.90;;;;;;5069551;28;20191;-83
2021/11/17 09:38:03;;;;;;;49.30;24.73;;;9.40;99.90;;;;;;5048893;28;20193;-83
2021/11/17 09:40:38;;;;;;;51.30;24.90;;;9.40;99.90;;;;;;5035877;28;20224;-81
2021/11/17 09:43:06;;;;;;;50.80;24.60;;;9.30;99.90;;;;;;5035630;28;20660;-81
2021/11/17 09:45:33;;;;;;;52.77;24.67;;;9.50;99.90;;;;;;5054451;28;20202;-82
2021/11/17 09:48:00;;;;;;;46.93;24.07;;;9.50;99.90;;;;;;5050752;28;20225;-82
2021/11/17 09:50:29;;;;;;;47.90;24.33;;;9.50;99.90;;;;;;5047537;28;20264;-81
2021/11/17 09:53:06;;;;;;;44.97;24.17;;;9.50;99.90;;;;;;5064059;28;20536;-82
2021/11/17 09:55:35;;;;;;;50.77;24.77;;;9.70;99.90;;;;;;5066341;28;20180;-82
2021/11/17 09:58:24;;;;;;;50.03;23.83;;;9.80;99.90;;;;;;5064469;28;20202;-81
2021/11/17 10:01:06;;;;;;;53.43;25.20;;;9.70;99.90;;;;;;5065414;28;20203;-82
2021/11/17 10:03:37;;;;;;;52.47;24.80;;;9.80;99.90;;;;;;5068798;28;20182;-82
2021/11/17 10:14:33;;;;;;;48.43;23.87;;;9.90;99.90;;;;;;5054536;28;20189;-82
2021/11/17 10:16:59;;;;;;;47.57;23.80;;;9.90;99.90;;;;;;5052361;28;20273;-84
2021/11/17 10:19:32;;;;;;;44.07;23.53;;;10.00;99.90;;;;;;5054531;28;20363;-83
2021/11/17 10:22:07;;;;;;;45.57;23.90;;;10.20;99.90;;;;;;5054911;28;20243;-84
2021/11/17 10:25:03;;;;;;;44.83;24.03;;;10.20;99.90;;;;;;5061184;28;20659;-84
2021/11/17 10:27:31;;;;;;;50.67;24.93;;;10.30;99.90;;;;;;5066817;28;20209;-82
2021/11/17 10:30:02;;;;;;;50.70;25.20;;;10.20;99.90;;;;;;5068049;28;20228;-82
2021/11/17 10:32:43;;;;;;;48.80;27.27;;;10.10;99.90;;;;;;5065666;28;20276;-83
2021/11/17 10:35:24;;;;;;;46.30;23.97;;;10.20;99.90;;;;;;5064359;28;20165;-82
2021/11/17 10:37:59;;;;;;;52.07;25.93;;;10.20;99.90;;;;;;5064705;28;20169;-81
2021/11/17 10:40:27;;;;;;;45.20;25.57;;;10.20;99.90;;;;;;5038835;28;20164;-83
2021/11/17 10:43:14;;;;;;;51.80;27.30;;;10.20;99.90;;;;;;5053789;28;20179;-82
2021/11/17 10:45:48;;;;;;;53.00;25.77;;;10.30;99.90;;;;;;5063473;28;20286;-81
2021/11/17 10:48:20;;;;;;;45.27;25.37;;;10.40;99.90;;;;;;5033291;28;20369;-82
2021/11/17 10:50:46;;;;;;;44.27;25.23;;;10.30;99.90;;;;;;5046857;28;20165;-81
2021/11/17 10:53:26;;;;;;;49.63;25.37;;;10.30;99.90;;;;;;5070428;28;20629;-82
2021/11/17 10:55:54;;;;;;;49.47;27.43;;;10.20;99.90;;;;;;5055032;28;20164;-82
2021/11/17 10:58:27;;;;;;;49.07;26.00;;;10.20;99.90;;;;;;5054256;28;20161;-82
2021/11/17 11:00:59;;;;;;;52.23;27.73;;;10.30;99.90;;;;;;5052635;28;20188;-81
2021/11/17 11:03:28;;;;;;;50.30;28.63;;;10.40;99.90;;;;;;5051306;28;20184;-83
2021/11/17 11:06:03;;;;;;;51.17;27.30;;;10.50;99.90;;;;;;5052423;28;20173;-82
2021/11/17 11:08:35;;;;;;;51.00;29.03;;;10.50;99.90;;;;;;5052717;28;20548;-82
2021/11/17 11:11:03;;;;;;;50.63;28.37;;;10.60;99.90;;;;;;5053640;28;20634;-83
2021/11/17 11:13:57;;;;;;;53.93;28.97;;;10.70;99.90;;;;;;5054997;28;20177;-83
2021/11/17 11:16:27;;;;;;;46.33;27.00;;;10.70;99.90;;;;;;5047230;28;20189;-82
2021/11/17 11:18:58;;;;;;;56.33;29.63;;;10.60;99.90;;;;;;5049976;28;20180;-81
2021/11/17 11:21:42;;;;;;;48.50;29.27;;;10.80;99.90;;;;;;5059010;28;20180;-82
2021/11/17 11:24:35;;;;;;;51.93;28.60;;;10.80;99.90;;;;;;5058934;28;20192;-81
2021/11/17 11:27:01;;;;;;;53.10;29.50;;;10.80;99.90;;;;;;5063228;28;20208;-82
2021/11/17 11:29:29;;;;;;;56.07;28.77;;;10.80;99.90;;;;;;5065014;28;20641;-81
2021/11/17 11:32:04;;;;;;;51.93;29.87;;;10.70;99.90;;;;;;5069375;28;20169;-83
2021/11/17 11:34:32;;;;;;;55.00;31.33;;;10.80;99.90;;;;;;5061577;28;20172;-82
2021/11/17 11:36:59;;;;;;;53.67;30.30;;;10.80;99.90;;;;;;5061219;28;20161;-82
2021/11/17 11:39:31;;;;;;;57.27;31.20;;;10.90;99.90;;;;;;5066463;28;20223;-82
2021/11/17 11:42:16;;;;;;;55.77;30.07;;;10.80;99.90;;;;;;5071381;28;20157;-80
2021/11/17 11:44:47;;;;;;;57.30;29.83;;;10.80;99.90;;;;;;5070466;28;20169;-82
2021/11/17 11:47:52;;;;;;;48.17;28.23;;;10.80;99.90;;;;;;5077002;28;20201;-82
2021/11/17 11:50:30;;;;;;;48.33;27.83;;;10.80;99.90;;;;;;5057401;28;20184;-83
2021/11/17 11:53:10;;;;;;;48.10;28.30;;;10.90;99.90;;;;;;5078847;28;20188;-83
2021/11/17 11:56:04;;;;;;;49.13;29.13;;;10.80;99.90;;;;;;5072908;28;20207;-84
2021/11/17 11:58:37;;;;;;;50.23;30.87;;;11.10;99.90;;;;;;5042731;28;20181;-84
2021/11/17 12:01:10;;;;;;;43.33;28.00;;;11.00;99.90;;;;;;5056252;28;20189;-84
2021/11/17 12:03:46;;;;;;;44.20;28.10;;;11.00;99.90;;;;;;5061284;28;20215;-82
2021/11/17 12:06:42;;;;;;;41.93;28.07;;;11.00;99.90;;;;;;5063548;28;20197;-84
2021/11/17 12:09:32;;;;;;;39.53;26.27;;;11.10;99.90;;;;;;5043005;28;20703;-83
2021/11/17 12:12:18;;;;;;;39.07;23.70;;;11.10;99.90;;;;;;5066631;28;20237;-82
2021/11/17 12:14:53;;;;;;;40.03;26.13;;;11.20;99.90;;;;;;5078441;28;20181;-84
2021/11/17 12:17:22;;;;;;;39.43;24.37;;;11.20;99.90;;;;;;5062187;28;20177;-85
2021/11/17 12:19:54;;;;;;;38.87;25.03;;;11.20;99.90;;;;;;5077555;28;20175;-83
2021/11/17 12:22:42;;;;;;;37.70;23.77;;;11.40;99.90;;;;;;5059205;28;20550;-82
2021/11/17 12:25:29;;;;;;;39.43;25.77;;;11.50;99.90;;;;;;5057939;28;20165;-83
2021/11/17 12:28:07;;;;;;;41.00;26.40;;;11.60;99.90;;;;;;5062722;28;20211;-81
2021/11/17 12:30:41;;;;;;;40.37;25.47;;;11.70;99.90;;;;;;5061047;28;20180;-83
2021/11/17 12:33:26;;;;;;;41.87;26.53;;;11.80;99.90;;;;;;5063032;28;20192;-83
2021/11/17 12:36:17;;;;;;;41.27;24.77;;;11.70;99.90;;;;;;5065514;28;20219;-86
2021/11/17 12:38:46;;;;;;;43.57;25.37;;;11.80;99.90;;;;;;5064685;28;20518;-84
2021/11/17 12:41:32;;;;;;;41.50;26.23;;;11.90;99.90;;;;;;5079258;28;20221;-82
2021/11/17 12:44:02;;;;;;;43.83;27.03;;;12.10;99.90;;;;;;5075441;28;20173;-83
2021/11/17 12:46:45;;;;;;;41.33;27.13;;;12.20;99.90;;;;;;5061366;28;20209;-83
2021/11/17 12:49:35;;;;;;;38.53;25.63;;;12.20;99.90;;;;;;5038895;28;20173;-82
2021/11/17 12:52:37;;;;;;;37.80;25.37;;;12.20;99.90;;;;;;5068039;28;20261;-81
2021/11/17 12:55:28;;;;;;;37.10;26.40;;;12.30;99.90;;;;;;4974913;28;20196;-83
2021/11/17 12:58:18;;;;;;;38.57;23.70;;;12.40;99.90;;;;;;5065651;28;20664;-82
2021/11/17 13:00:53;;;;;;;38.47;24.97;;;12.50;99.90;;;;;;5054398;28;20200;-84
2021/11/17 13:03:37;;;;;;;38.00;24.43;;;12.70;99.90;;;;;;5069421;28;20176;-85
2021/11/17 13:06:29;;;;;;;42.10;25.67;;;12.80;99.90;;;;;;5088836;28;20186;-83
2021/11/17 13:09:47;;;;;;;36.67;24.10;;;12.60;99.90;;;;;;5076254;28;20170;-83
2021/11/17 13:12:55;;;;;;;39.30;26.57;;;12.60;99.90;;;;;;5087431;28;20193;-84
2021/11/17 13:15:23;;;;;;;32.87;24.00;;;12.50;99.90;;;;;;5076587;28;20283;-82
2021/11/17 13:17:50;;;;;;;39.77;25.63;;;12.50;99.90;;;;;;5078478;28;20175;-81
2021/11/17 13:20:24;;;;;;;35.07;24.17;;;12.70;99.90;;;;;;5055623;28;20247;-83
2021/11/17 13:23:17;;;;;;;63.27;37.23;;;12.60;99.90;;;;;;5056069;28;20230;-80
2021/11/17 13:26:00;;;;;;;30.10;19.87;;;12.60;99.90;;;;;;5076197;28;20173;-84
2021/11/17 13:28:37;;;;;;;29.37;20.27;;;12.50;99.90;;;;;;5060063;28;20176;-84
2021/11/17 13:31:48;;;;;;;25.80;19.03;;;12.60;99.90;;;;;;5069646;28;20223;-81
2021/11/17 13:34:29;;;;;;;32.73;20.53;;;12.80;99.90;;;;;;5075700;28;20306;-84
2021/11/17 13:37:32;;;;;;;31.67;20.57;;;12.80;99.90;;;;;;5075158;28;20215;-83
2021/11/17 13:40:10;;;;;;;33.60;19.97;;;12.80;99.90;;;;;;5075388;28;20532;-84
2021/11/17 13:42:46;;;;;;;30.20;18.83;;;12.80;99.90;;;;;;5066029;28;20181;-83
2021/11/17 13:45:23;;;;;;;30.53;19.73;;;12.90;99.90;;;;;;5074279;28;20209;-82
2021/11/17 13:47:54;;;;;;;32.50;19.07;;;12.80;99.90;;;;;;5052920;28;20215;-82
2021/11/17 13:50:40;;;;;;;87.37;44.40;;;12.90;99.80;;;;;;5058268;28;20161;-80
2021/11/17 13:53:10;;;;;;;27.37;16.63;;;12.90;99.20;;;;;;5051350;28;20251;-83
2021/11/17 13:55:45;;;;;;;20.07;14.07;;;12.90;98.80;;;;;;5074313;28;20165;-81
2021/11/17 13:58:20;;;;;;;21.60;12.27;;;13.00;98.10;;;;;;5059197;28;20254;-85
2021/11/17 14:00:47;;;;;;;30.10;15.00;;;12.90;97.90;;;;;;5058764;28;20197;-84
2021/11/17 14:03:26;;;;;;;21.10;13.00;;;13.00;97.40;;;;;;5075128;28;20199;-83
2021/11/17 14:05:54;;;;;;;16.90;10.73;;;13.00;97.70;;;;;;5076706;28;20195;-84
2021/11/17 14:08:44;;;;;;;28.07;15.47;;;12.90;96.50;;;;;;5072714;28;20610;-84
2021/11/17 14:11:16;;;;;;;29.00;18.60;;;12.90;97.10;;;;;;5071130;28;20616;-84
2021/11/17 14:13:45;;;;;;;63.70;36.93;;;12.90;96.60;;;;;;5066327;28;20169;-82
2021/11/17 14:16:15;;;;;;;41.53;21.50;;;12.90;95.70;;;;;;5070952;28;20229;-85
2021/11/17 14:18:42;;;;;;;25.80;13.30;;;12.90;95.60;;;;;;5061075;28;20181;-85
2021/11/17 14:21:14;;;;;;;20.10;10.10;;;12.90;95.60;;;;;;5062226;28;20181;-85
2021/11/17 14:23:40;;;;;;;18.13;9.30;;;12.90;95.00;;;;;;5061628;28;20288;-83
2021/11/17 14:26:13;;;;;;;24.60;9.93;;;12.90;94.10;;;;;;5063270;28;20211;-82
2021/11/17 14:28:52;;;;;;;21.83;9.10;;;13.00;94.20;;;;;;5065284;28;20240;-85
2021/11/17 14:31:43;;;;;;;22.93;8.57;;;13.10;93.50;;;;;;5064306;28;20177;-85
2021/11/17 14:34:10;;;;;;;16.93;7.50;;;13.20;92.40;;;;;;5057207;28;20187;-85
2021/11/17 14:36:45;;;;;;;13.97;7.00;;;13.20;91.70;;;;;;5065102;28;20184;-85
2021/11/17 14:39:13;;;;;;;18.97;7.37;;;13.00;90.70;;;;;;5071719;28;20168;-84
2021/11/17 14:41:41;;;;;;;24.07;7.80;;;13.10;90.70;;;;;;5077200;28;20189;-83
2021/11/17 14:44:07;;;;;;;20.57;7.20;;;13.10;90.40;;;;;;5065892;28;20173;-84
2021/11/17 14:46:37;;;;;;;19.30;7.17;;;13.10;88.90;;;;;;5064885;28;20524;-83
2021/11/17 14:49:04;;;;;;;18.90;6.70;;;12.90;87.60;;;;;;5058102;28;20172;-84
2021/11/17 14:51:32;;;;;;;14.60;5.50;;;12.90;88.50;;;;;;5061721;28;20178;-83
2021/11/17 14:53:59;;;;;;;17.30;6.73;;;12.90;86.80;;;;;;5069079;28;20195;-81
2021/11/17 14:56:27;;;;;;;20.37;6.43;;;13.00;86.90;;;;;;5071221;28;20200;-83
2021/11/17 14:58:53;;;;;;;22.37;6.80;;;13.10;86.10;;;;;;5071140;28;20179;-84
2021/11/17 15:01:26;;;;;;;19.57;6.47;;;13.30;86.60;;;;;;5067492;28;20246;-84
2021/11/17 15:03:53;;;;;;;22.67;6.77;;;13.50;84.50;;;;;;5065255;28;20188;-83
2021/11/17 15:06:21;;;;;;;17.70;6.17;;;13.50;83.10;;;;;;5045754;28;20313;-86
2021/11/17 15:08:54;;;;;;;15.30;6.03;;;13.60;80.70;;;;;;5062468;28;20683;-83
2021/11/17 15:11:21;;;;;;;15.03;5.73;;;13.60;79.90;;;;;;5061720;28;20175;-82
2021/11/17 15:13:47;;;;;;;17.03;5.20;;;13.70;72.00;;;;;;5045432;28;20229;-82
2021/11/17 15:16:13;;;;;;;13.50;4.50;;;13.50;71.50;;;;;;5044213;28;20183;-82
2021/11/17 15:18:45;;;;;;;15.30;4.30;;;13.70;68.80;;;;;;5061300;28;20171;-84
2021/11/17 15:21:13;;;;;;;15.30;4.57;;;13.50;65.60;;;;;;5049906;28;20323;-82
2021/11/17 15:23:39;;;;;;;14.00;4.40;;;13.40;69.40;;;;;;5057784;28;20207;-84
2021/11/17 15:26:06;;;;;;;15.60;6.00;;;13.30;68.70;;;;;;5058191;28;20252;-83
2021/11/17 15:28:36;;;;;;;19.00;5.17;;;13.30;70.80;;;;;;5055266;28;20181;-82
2021/11/17 15:31:09;;;;;;;20.37;5.30;;;13.20;71.40;;;;;;5061518;28;20171;-84
2021/11/17 15:33:35;;;;;;;9.90;4.00;;;13.30;71.80;;;;;;5061842;28;20169;-82
2021/11/17 15:36:03;;;;;;;18.30;5.43;;;13.20;68.80;;;;;;5059206;28;20173;-82
2021/11/17 15:38:31;;;;;;;16.90;4.43;;;13.00;71.40;;;;;;5061453;28;20281;-86
2021/11/17 15:41:00;;;;;;;12.50;4.53;;;12.90;73.10;;;;;;5054715;28;20178;-83
2021/11/17 15:43:27;;;;;;;16.57;3.87;;;12.70;74.70;;;;;;5059196;28;20169;-85
2021/11/17 15:45:57;;;;;;;15.13;4.13;;;12.60;78.30;;;;;;5066557;28;20192;-82
2021/11/17 15:48:24;;;;;;;16.67;4.97;;;12.50;79.60;;;;;;5066418;28;20225;-83
2021/11/17 15:50:59;;;;;;;10.97;3.67;;;12.40;81.20;;;;;;5065126;28;20175;-83